Cuprija, Serbia

9:26 PM CEST on May 24, 2015 (GMT +0200)
ICENTRAL24 | | Change Station
CLOSE
Current Station
Personal Weather Station
Location: Paracin, Central Serbia
Elevation: 423 ft
Nearby Weather Stations

Elev 423 ft 43.87 °N, 21.40 °E | Updated 46 seconds ago

Mostly Cloudy
Mostly Cloudy
59.7 °F
Feels Like 59.7 °F
N
0.0
Wind Variable Wind from NE
Gusts 5.0 mph

Today
High -- | Low -- °F
--% Chance of Precip.
Yesterday
High -- | Low -- °F
Precip. -- in
5:00 AM 8:02 PM
Waxing Crescent, 41% visible
Pressure 29.83 in
Visibility 6.2 miles
Clouds Scattered Clouds 1300 ft
Mostly Cloudy 3700 ft
Dew Point 57 °F
Humidity 90%
Rainfall 1.79 in
Snow Depth Not available.
UV 0 out of 12
Pollen Not available.
Air Quality Not available.
Flu Activity Not available.
METAR LYNI 241900Z 30009KT 260V330 9999 SCT013 BKN037 17/14 Q1010 NOSIG

More Conditions Fewer Conditions

Pressure 29.83 in
Visibility 6.2 miles
Clouds Scattered Clouds 1300 ft
Mostly Cloudy 3700 ft
Dew Point 57 °F
Humidity 90%
Rainfall 1.79 in
Snow Depth Not available.
UV 0 out of 12
Pollen Not available.
Air Quality Not available.
Flu Activity Not available.
METAR LYNI 241900Z 30009KT 260V330 9999 SCT013 BKN037 17/14 Q1010 NOSIG

More Conditions Fewer Conditions

10-Day Weather Forecast

Almanac

Astronomy

May. 24, 2015 Rise Set
Actual Time
Civil Twilight
Nautical Twilight
Astronomical Twilight
Moon
Length of Visible Light
Length of Day
Tomorrow will be .
, % of the Moon is Illuminated

Today's Extremes

Country Highs Country Lows

Community

WunderPhotos

Upload Photos

1,823,832 photos uploaded!

WunderBlogs® & News

Nearby

Air Quality

  Air Quality AQ Index Pollutant
Not available.

Snow Depth

Station Depth Elevation

Earthquake Activity

City Distance Mag. Time & Date
Minimum magnitude displayed is 2.5.

Coastal Water Temperatures

Place Temperature

Stations

Nearby Weather Stations

Station Location Temp. Windchill Dew Point Humidity Wind Precip. Elev Updated Type